METAR stanice u blizini

 

LYNI - Nis, Yugoslavia
Distance from station: JZ 40km
Ažurirano: 20/09/2020 21:30
Vedro
Vedro
 Pravac vetra SSZ
Vetar: SSZ 7 km/h
Temperatura: 18°C
Tačka rose: 3°C
Vlažnost: 37%
Pritisak: 1018 hPa
Pregled: Vedro
Vidljivost: greater than 10 km
2020/09/20 19:30 LYNI 201930Z 33004KT CAVOK 18/03 Q1018 NOSIG
LYKV - Kraljevo, Yugoslavia
Distance from station: ZSZ 136km
Ažurirano: 20/09/2020 21:30
Vedro
Vedro
 Pravac vetra calm
Vetar: Tišina
Temperatura: 14°C
Tačka rose: 10°C
Vlažnost: 77%
Pritisak: 1018 hPa
Pregled: Vedro
Vidljivost: greater than 10 km
2020/09/20 19:30 LYKV 201930Z 00000KT CAVOK 14/10 Q1018 NOSIG
LBSF - Sofia (observato, Bulgaria
Distance from station: JI 138km
Ažurirano: 20/09/2020 21:30
Vedro
Vedro
 Pravac vetra IJI
Vetar: IJI 7 km/h
Temperatura: 13°C
Tačka rose: 3°C
Vlažnost: 51%
Pritisak: 1020 hPa
Pregled: Vedro
Vidljivost: greater than 10 km
2020/09/20 19:30 LBSF 201930Z 12004KT CAVOK 13/03 Q1020 NOSIG
 
BKPR - Prishtina, Yugoslavia
Distance from station: JZ 147km
Ažurirano: 20/09/2020 21:30
Vedro
Vedro
 Pravac vetra varies
Vetar: varies 4 km/h
Temperatura: 16°C
Tačka rose: 6°C
Vlažnost: 52%
Pritisak: 1019 hPa
Pregled: Vedro
Vidljivost: greater than 10 km
2020/09/20 19:30 BKPR 201930Z VRB02KT CAVOK 16/06 Q1019 NOSIG
LRCV - Craiova, Romania
Distance from station: SI 154km
Ažurirano: 20/09/2020 21:30
Vedro
Vedro
 Pravac vetra IJI
Vetar: IJI 7 km/h
Temperatura: 16°C
Tačka rose: 2°C
Vlažnost: 39%
Pritisak: 1020 hPa
Pregled: Vedro
Vidljivost: greater than 10 km
2020/09/20 19:30 LRCV 201930Z 11004KT CAVOK 16/02 Q1020
LWSK - Skopje/Petrovac, Macedonia
Distance from station: JJZ 185km
Ažurirano: 20/09/2020 21:30
Vedro
Vedro
 Pravac vetra varies
Vetar: varies 4 km/h
Temperatura: 19°C
Tačka rose: 9°C
Vlažnost: 52%
Pritisak: 1017 hPa
Pregled: Vedro
Vidljivost: greater than 10 km
2020/09/20 19:30 LWSK 201930Z VRB02KT CAVOK 19/09 Q1017 NOSIG
 
LYVR - Vrsac, Yugoslavia
Distance from station: SSZ 189km
Ažurirano: 20/09/2020 21:30
Vedro
Vedro
 Pravac vetra JI
Vetar: JI 17 km/h
Temperatura: 20°C
Tačka rose: 5°C
Vlažnost: 38%
Pritisak: 1018 hPa
Pregled: Vedro
Vidljivost: greater than 10 km
2020/09/20 19:30 LYVR 201930Z AUTO 14009KT 090V190 CAVOK 20/05 Q1018
LYUZ - Uzice-Ponikve, Yugoslavia
Distance from station: Z 207km
Ažurirano: 20/09/2020 21:30
Vedro
Vedro
 Pravac vetra IJI
Vetar: IJI 7 km/h
Temperatura: 15°C
Tačka rose: 8°C
Vlažnost: 63%
Pritisak: 1020 hPa
Pregled: Vedro
Vidljivost: greater than 10 km
2020/09/20 19:30 LYUZ 201930Z AUTO 11004KT 070V150 CAVOK 15/08 Q1020
LYBE - Belgrade/Surcin, Yugoslavia
Distance from station: SZ 209km
Ažurirano: 20/09/2020 21:30
Vedro
Vedro
 Pravac vetra I
Vetar: I 15 km/h
Temperatura: 19°C
Tačka rose: 6°C
Vlažnost: 43%
Pritisak: 1018 hPa
Pregled: Vedro
Vidljivost: greater than 10 km
2020/09/20 19:30 LYBE 201930Z 10008KT CAVOK 19/06 Q1018 NOSIG
 
LYBT - Batajnica, Yugoslavia
Distance from station: SZ 219km
Ažurirano: 20/09/2020 21:30
Vedro
Vedro
 Pravac vetra ISI
Vetar: ISI 11 km/h
Temperatura: 18°C
Tačka rose: 6°C
Vlažnost: 46%
Pritisak: 1017 hPa
Pregled: Vedro
Vidljivost: greater than 10 km
2020/09/20 19:30 LYBT 201930Z 07006KT 030V100 CAVOK 18/06 Q1017 NOSIG
LRTR - Timisoara/Giarma, Romania
Distance from station: SSZ 260km
Ažurirano: 20/09/2020 21:30
Vedro
Vedro
 Pravac vetra I
Vetar: I 7 km/h
Temperatura: 16°C
Tačka rose: 8°C
Vlažnost: 59%
Pritisak: 1018 hPa
Pregled: Vedro
Vidljivost: greater than 10 km
2020/09/20 19:30 LRTR 201930Z 10004KT 070V130 CAVOK 16/08 Q1018 NOSIG
LBPD - Plovdiv, Bulgaria
Distance from station: JI 263km
Ažurirano: 20/09/2020 21:30
Vedro
Vedro
 Pravac vetra J
Vetar: J 15 km/h
Temperatura: 17°C
Tačka rose: 3°C
Vlažnost: 39%
Pritisak: 1019 hPa
Oblaci: Vedro
Vidljivost: 10 km
2020/09/20 19:30 LBPD 201930Z AUTO 18008KT 9999 NCD 17/03 Q1019 NOSIG
 
LYPG - Podgorica(Titogr, Yugoslavia
Distance from station: ZJZ 278km
Ažurirano: 20/09/2020 21:30
Vedro
Vedro
 Pravac vetra Z
Vetar: Z 6 km/h
Temperatura: 23°C
Tačka rose: 14°C
Vlažnost: 57%
Pritisak: 1015 hPa
Pregled: Vedro
Vidljivost: greater than 10 km
2020/09/20 19:30 LYPG 201930Z 27003KT 230V330 CAVOK 23/14 Q1015 NOSIG
LBGO - Gorna Orechovist, Bulgaria
Distance from station: I 285km
Ažurirano: 20/09/2020 21:30
Vedro
Vedro
 Pravac vetra calm
Vetar: Tišina
Temperatura: 10°C
Tačka rose: 5°C
Vlažnost: 71%
Pritisak: 1020 hPa
Oblaci: Vedro
Vidljivost: 10 km
2020/09/20 19:30 LBGO 201930Z AUTO 00000KT 9999 NCD 10/05 Q1020
LRSB - Sibiu/Turnisor, Romania
Distance from station: SSI 286km
Ažurirano: 20/09/2020 21:30
Vedro
Vedro
 Pravac vetra JZ
Vetar: JZ 6 km/h
Temperatura: 12°C
Tačka rose: 8°C
Vlažnost: 77%
Pritisak: 1020 hPa
Pregled: Vedro
Vidljivost: greater than 10 km
2020/09/20 19:30 LRSB 201930Z 23003KT CAVOK 12/08 Q1020
 
LWOH - Ohrid, Macedonia
Distance from station: JJZ 292km
Ažurirano: 20/09/2020 20:00
NOT Current
Few Clouds
Few Clouds
 Pravac vetra ISI
Vetar: ISI 17 km/h
Temperatura: 21°C
Tačka rose: 8°C
Vlažnost: 43%
Pritisak: 1017 hPa
Oblaci: Few Clouds
Vidljivost: 10 km
Cloud details: Few Clouds 1219 m
2020/09/20 18:00 LWOH 201800Z 06009KT 9999 FEW040 21/08 Q1017
LQTZ - Tuzla, Yugoslavia
Distance from station: ZSZ 298km
Ažurirano: 20/09/2020 21:30
Vedro
Vedro
 Pravac vetra varies
Vetar: varies 4 km/h
Temperatura: 14°C
Tačka rose: 13°C
Vlažnost: 94%
Pritisak: 1017 hPa
Pregled: Vedro
Vidljivost: greater than 10 km
2020/09/20 19:30 LQTZ 201930Z VRB02KT CAVOK 14/13 Q1017
LRAR - Arad, Romania
Distance from station: SSZ 301km
Ažurirano: 20/09/2020 21:30
Vedro
Vedro
 Pravac vetra calm
Vetar: Tišina
Temperatura: 15°C
Tačka rose: 10°C
Vlažnost: 72%
Pritisak: 1018 hPa
Pregled: Vedro
Vidljivost: greater than 10 km
2020/09/20 19:30 LRAR 201930Z 00000KT CAVOK 15/10 Q1018
 
LYTV - Tivat, Yugoslavia
Distance from station: ZJZ 315km
Ažurirano: 20/09/2020 21:30
Vedro
Vedro
 Pravac vetra varies
Vetar: varies 4 km/h
Temperatura: 18°C
Tačka rose: 13°C
Vlažnost: 73%
Pritisak: 1014 hPa
Pregled: Vedro
Vidljivost: greater than 10 km
2020/09/20 19:30 LYTV 201930Z VRB02KT CAVOK 18/13 Q1014
LATI - Tirana, Albania
Distance from station: JZ 316km
Ažurirano: 20/09/2020 21:50
Vedro
Vedro
 Pravac vetra JJI
Vetar: JJI 6 km/h
Temperatura: 20°C
Tačka rose: 17°C
Vlažnost: 83%
Pritisak: 1015 hPa
Pregled: Vedro
Vidljivost: greater than 10 km
2020/09/20 19:50 LATI 201950Z 15003KT CAVOK 20/17 Q1015 NOSIG
LQBK - Banja Luka, Yugoslavia
Distance from station: SZ 426km
Ažurirano: 20/09/2020 21:00
Vedro
Vedro
 Pravac vetra JI
Vetar: JI 4 km/h
Temperatura: 15°C
Tačka rose: 12°C
Vlažnost: 82%
Pritisak: 1017 hPa
Pregled: Vedro
Vidljivost: greater than 10 km
2020/09/20 19:00 LQBK 201900Z 14002KT CAVOK 15/12 Q1017 NOSIG
 
LDOS - Osijek, Croatia
Distance from station: SSZ 360km
Ažurirano: 20/09/2020 21:30
Vedro
Vedro
 Pravac vetra I
Vetar: I 11 km/h
Temperatura: 16°C
Tačka rose: 9°C
Vlažnost: 63%
Pritisak: 1017 hPa
Pregled: Vedro
Vidljivost: greater than 10 km
2020/09/20 19:30 LDOS 201930Z 09006KT CAVOK 16/09 Q1017
LDDU - Dubrovnik-Cilipi, Croatia
Distance from station: JZ 352km
Ažurirano: 20/09/2020 21:30
Vedro
Vedro
 Pravac vetra ZSZ
Vetar: ZSZ 15 km/h
Temperatura: 22°C
Tačka rose: 16°C
Vlažnost: 69%
Pritisak: 1015 hPa
Pregled: Vedro
Vidljivost: greater than 10 km
2020/09/20 19:30 LDDU 201930Z 30008KT CAVOK 22/16 Q1015 NOSIG
LQMO - Mostar Airport, Bosnia-Herzegovina
Distance from station: Z 359km
Ažurirano: 20/09/2020 21:00
Vedro
Vedro
 Pravac vetra IJI
Vetar: IJI 9 km/h
Temperatura: 23°C
Tačka rose: 13°C
Vlažnost: 53%
Pritisak: 1014 hPa
Pregled: Vedro
Vidljivost: greater than 10 km
2020/09/20 19:00 LQMO 201900Z 11005KT CAVOK 23/13 Q1014
 
LQSA - Sarajevo/Butmir, Yugoslavia
Distance from station: Z 311km
Ažurirano: 20/09/2020 21:30
Vedro
Vedro
 Pravac vetra JI
Vetar: JI 7 km/h
Temperatura: 17°C
Tačka rose: 15°C
Vlažnost: 88%
Pritisak: 1018 hPa
Pregled: Vedro
Vidljivost: greater than 10 km
2020/09/20 19:30 LQSA 201930Z 13004KT 110V170 CAVOK 17/15 Q1018 NOSIG
LDSP - Split/Kastel Sta, Croatia
Distance from station: Z 468km
Ažurirano: 20/09/2020 21:30
Vedro
Vedro
 Pravac vetra S
Vetar: S 6 km/h
Temperatura: 23°C
Tačka rose: 14°C
Vlažnost: 57%
Pritisak: 1015 hPa
Pregled: Vedro
Vidljivost: greater than 10 km
2020/09/20 19:30 LDSP 201930Z 35003KT CAVOK 23/14 Q1015 NOSIG
LDZD - Zadar/Zemunik, Croatia
Distance from station: ZSZ 567km
Ažurirano: 20/09/2020 21:30
Vedro
Vedro
 Pravac vetra SZ
Vetar: SZ 2 km/h
Temperatura: 17°C
Tačka rose: 13°C
Vlažnost: 77%
Pritisak: 1015 hPa
Pregled: Vedro
Vidljivost: greater than 10 km
2020/09/20 19:30 LDZD 201930Z 32001KT CAVOK 17/13 Q1015 NOSIG
 
LDZA - Zagreb/Pleso, Croatia
Distance from station: SZ 555km
Ažurirano: 20/09/2020 21:30
Vedro
Vedro
 Pravac vetra calm
Vetar: Tišina
Temperatura: 15°C
Tačka rose: 11°C
Vlažnost: 77%
Pritisak: 1017 hPa
Pregled: Vedro
Vidljivost: greater than 10 km
2020/09/20 19:30 LDZA 201930Z 00000KT CAVOK 15/11 Q1017 NOSIG
LJCE - Cerklje, Slovenia
Distance from station: SZ 680km
Ažurirano: 20/09/2020 21:30
Vedro
Vedro
 Pravac vetra Z
Vetar: Z 2 km/h
Temperatura: 14°C
Tačka rose: 12°C
Vlažnost: 88%
Pritisak: 1017 hPa
Oblaci: Vedro
Vidljivost: 10 km
2020/09/20 19:30 LJCE 201930Z AUTO 26001KT 9999 NCD 14/12 Q1017
LJMB - Maribor, Slovenia
Distance from station: SZ 616km
Ažurirano: 20/09/2020 21:30
Vedro
Vedro
 Pravac vetra S
Vetar: S 7 km/h
Temperatura: 13°C
Tačka rose: 11°C
Vlažnost: 88%
Pritisak: 1018 hPa
Pregled: Vedro
Vidljivost: greater than 10 km
2020/09/20 19:30 LJMB 201930Z 35004KT CAVOK 13/11 Q1018
 
LJLJ - Ljubljana/Brnik, Slovenia
Distance from station: SZ 671km
Ažurirano: 20/09/2020 21:30
Vedro
Vedro
 Pravac vetra varies
Vetar: varies 2 km/h
Temperatura: 12°C
Tačka rose: 11°C
Vlažnost: 94%
Pritisak: 1018 hPa
Pregled: Vedro
Vidljivost: greater than 10 km
2020/09/20 19:30 LJLJ 201930Z VRB01KT CAVOK 12/11 Q1018 NOSIG
LDRI - Rijeka, Croatia
Distance from station: SZ 650km
Ažurirano: 20/09/2020 21:30
Vedro
Vedro
 Pravac vetra ZSZ
Vetar: ZSZ 7 km/h
Temperatura: 21°C
Tačka rose: 14°C
Vlažnost: 64%
Pritisak: 1015 hPa
Pregled: Vedro
Vidljivost: greater than 10 km
2020/09/20 19:30 LDRI 201930Z 30004KT CAVOK 21/14 Q1015
LDPL - Pula, Croatia
Distance from station: ZSZ 686km
Ažurirano: 20/09/2020 21:30
Vedro
Vedro
 Pravac vetra SSZ
Vetar: SSZ 6 km/h
Temperatura: 18°C
Tačka rose: 16°C
Vlažnost: 88%
Pritisak: 1016 hPa
Pregled: Vedro
Vidljivost: greater than 10 km
2020/09/20 19:30 LDPL 201930Z 34003KT 320V020 CAVOK 18/16 Q1016 NOSIG
 
LJPZ - Portorož, Slovenia
Distance from station: ZSZ 720km
Ažurirano: 20/09/2020 21:30
Vedro
Vedro
 Pravac vetra IJI
Vetar: IJI 13 km/h
Temperatura: 18°C
Tačka rose: 15°C
Vlažnost: 83%
Pritisak: 1016 hPa
Pregled: Vedro
Vidljivost: greater than 10 km
2020/09/20 19:30 LJPZ 201930Z 12007KT CAVOK 18/15 Q1016